createdAt,value
2024-04-14T00:02:38.614Z,82.15
2024-04-14T00:05:44.330Z,81.87
2024-04-14T00:08:48.860Z,82.20
2024-04-14T00:11:50.971Z,82.26
2024-04-14T00:14:55.423Z,82.41
2024-04-14T00:17:59.818Z,81.98
2024-04-14T00:21:07.396Z,82.08
2024-04-14T00:24:09.096Z,82.14
2024-04-14T00:27:13.428Z,81.86
2024-04-14T00:30:17.835Z,82.16
2024-04-14T00:33:20.187Z,82.12
2024-04-14T00:36:27.179Z,82.21
2024-04-14T00:39:28.913Z,82.23
2024-04-14T00:42:33.228Z,82.33
2024-04-14T00:45:37.613Z,82.13
2024-04-14T00:48:42.139Z,82.12
2024-04-14T00:51:46.917Z,82.21
2024-04-14T00:54:52.093Z,82.41
2024-04-14T00:57:54.277Z,82.34
2024-04-14T01:00:58.840Z,81.89
2024-04-14T01:04:00.910Z,82.04
2024-04-14T01:07:08.487Z,82.25
2024-04-14T01:10:10.503Z,82.14
2024-04-14T01:13:14.805Z,82.03
2024-04-14T01:16:16.744Z,81.83
2024-04-14T01:19:20.994Z,82.14
2024-04-14T01:22:25.266Z,81.94
2024-04-14T01:25:32.077Z,82.01
2024-04-14T01:28:33.775Z,81.88
2024-04-14T01:31:38.063Z,81.89
2024-04-14T01:34:42.920Z,81.85
2024-04-14T01:37:44.655Z,81.92
2024-04-14T01:40:51.540Z,82.00
2024-04-14T01:43:53.279Z,82.09
2024-04-14T01:46:57.969Z,82.05
2024-04-14T01:49:59.959Z,82.07
2024-04-14T01:53:05.308Z,81.58
2024-04-14T01:56:09.830Z,81.82
2024-04-14T01:59:14.204Z,81.89
2024-04-14T02:02:18.165Z,82.09
2024-04-14T02:05:24.042Z,82.32
2024-04-14T02:08:26.234Z,81.95
2024-04-14T02:11:33.210Z,81.81
2024-04-14T02:14:34.920Z,81.96
2024-04-14T02:17:39.281Z,81.89
2024-04-14T02:20:45.240Z,81.88
2024-04-14T02:23:46.973Z,82.21
2024-04-14T02:26:53.862Z,82.09
2024-04-14T02:29:55.506Z,82.04
2024-04-14T02:32:59.889Z,82.08
2024-04-14T02:36:02.777Z,82.05
2024-04-14T02:39:07.125Z,81.89
2024-04-14T02:42:11.501Z,81.93
2024-04-14T02:45:15.830Z,82.31
2024-04-14T02:48:19.055Z,82.09
2024-04-14T02:51:23.433Z,82.17
2024-04-14T02:54:27.783Z,81.97
2024-04-14T02:57:34.891Z,82.13
2024-04-14T03:00:37.123Z,81.88
2024-04-14T03:03:41.891Z,81.92
2024-04-14T03:06:43.761Z,82.08
2024-04-14T03:09:48.071Z,81.97
2024-04-14T03:12:52.466Z,82.13
2024-04-14T03:15:56.919Z,82.24
2024-04-14T03:18:58.762Z,82.08
2024-04-14T03:22:03.466Z,82.25
2024-04-14T03:25:05.573Z,82.08
2024-04-14T03:28:13.206Z,81.76
2024-04-14T03:31:15.063Z,82.21
2024-04-14T03:34:19.541Z,82.14
2024-04-14T03:37:23.907Z,82.03
2024-04-14T03:40:29.091Z,81.95
2024-04-14T03:43:36.328Z,82.10
2024-04-14T03:46:40.689Z,82.26
2024-04-14T03:49:44.916Z,82.00
2024-04-14T03:52:46.957Z,81.98
2024-04-14T03:55:51.777Z,82.15
2024-04-14T03:58:56.809Z,82.06
2024-04-14T04:02:02.026Z,82.13
2024-04-14T04:05:04.500Z,82.05
2024-04-14T04:08:09.961Z,82.37
2024-04-14T04:11:14.747Z,81.96
2024-04-14T04:14:19.411Z,81.95
2024-04-14T04:17:24.246Z,82.03
2024-04-14T04:20:26.397Z,82.16
2024-04-14T04:23:31.827Z,82.04
2024-04-14T04:26:34.036Z,82.30
2024-04-14T04:29:41.806Z,82.11
2024-04-14T04:32:43.874Z,81.96
2024-04-14T04:35:55.299Z,82.13
2024-04-14T04:39:03.961Z,82.08
2024-04-14T04:42:09.592Z,82.29
2024-04-14T04:45:14.540Z,82.14
2024-04-14T04:48:19.402Z,81.97
2024-04-14T04:51:21.498Z,81.89
2024-04-14T04:54:26.286Z,81.88
2024-04-14T04:57:28.293Z,82.13
2024-04-14T05:00:35.566Z,82.08
2024-04-14T05:03:37.592Z,82.19
2024-04-14T05:06:42.322Z,82.15
2024-04-14T05:09:46.983Z,81.84
2024-04-14T05:12:51.578Z,82.12
2024-04-14T05:15:56.608Z,81.82
2024-04-14T05:19:01.520Z,82.14
2024-04-14T05:22:03.765Z,82.13
2024-04-14T05:25:08.592Z,81.88
2024-04-14T05:28:10.773Z,82.00
2024-04-14T05:31:18.663Z,81.85
2024-04-14T05:34:20.601Z,81.68
2024-04-14T05:37:25.668Z,81.89
2024-04-14T05:40:28.133Z,81.85
2024-04-14T05:43:32.819Z,81.98
2024-04-14T05:46:38.042Z,81.74
2024-04-14T05:49:42.885Z,82.23
2024-04-14T05:52:45.199Z,82.21
2024-04-14T05:55:50.045Z,82.00
2024-04-14T05:58:56.885Z,82.08
2024-04-14T06:02:02.866Z,81.99
2024-04-14T06:05:29.193Z,82.13
2024-04-14T06:08:32.012Z,82.17
2024-04-14T06:11:43.455Z,81.85
2024-04-14T06:14:46.023Z,81.97
2024-04-14T06:18:12.140Z,82.05
2024-04-14T06:21:21.356Z,81.89
2024-04-14T06:24:32.833Z,82.06
2024-04-14T06:27:38.215Z,81.96
2024-04-14T06:30:42.631Z,81.75
2024-04-14T06:33:49.987Z,81.73
2024-04-14T06:36:56.682Z,82.08
2024-04-14T06:40:15.914Z,81.74
2024-04-14T06:43:23.556Z,82.04
2024-04-14T06:46:29.529Z,81.96
2024-04-14T06:49:37.833Z,81.81
2024-04-14T06:52:42.221Z,81.55
2024-04-14T06:55:45.769Z,81.75
2024-04-14T06:58:53.183Z,81.75
2024-04-14T07:01:55.779Z,81.28
2024-04-14T07:05:07.484Z,81.70
2024-04-14T07:08:09.717Z,81.38
2024-04-14T07:11:15.803Z,81.39
2024-04-14T07:14:20.637Z,81.75
2024-04-14T07:17:22.543Z,81.78
2024-04-14T07:20:30.599Z,81.67
2024-04-14T07:23:33.289Z,81.47
2024-04-14T07:26:37.637Z,81.52
2024-04-14T07:29:42.077Z,81.60
2024-04-14T07:32:43.877Z,82.03
2024-04-14T07:35:51.256Z,81.63
2024-04-14T07:38:53.091Z,81.84
2024-04-14T07:41:59.013Z,81.82
2024-04-14T07:45:00.976Z,81.84
2024-04-14T07:48:05.842Z,81.85
2024-04-14T07:51:10.492Z,81.63
2024-04-14T07:54:34.603Z,81.75
2024-04-14T07:57:44.222Z,82.04
2024-04-14T08:00:56.644Z,81.81
2024-04-14T08:03:59.012Z,81.62
2024-04-14T08:07:08.804Z,81.43
2024-04-14T08:10:11.136Z,81.71
2024-04-14T08:13:16.348Z,81.38
2024-04-14T08:16:22.844Z,81.30
2024-04-14T08:19:27.483Z,81.33
2024-04-14T08:22:34.756Z,81.39
2024-04-14T08:25:39.764Z,81.50
2024-04-14T08:28:44.197Z,81.27
2024-04-14T08:31:46.171Z,81.21
2024-04-14T08:34:50.921Z,81.44
2024-04-14T08:37:55.330Z,81.43
2024-04-14T08:41:00.403Z,81.31
2024-04-14T08:44:02.253Z,81.40
2024-04-14T08:47:08.202Z,81.98
2024-04-14T08:50:11.387Z,81.78
2024-04-14T08:53:21.333Z,81.67
2024-04-14T08:56:24.550Z,81.72
2024-04-14T08:59:30.248Z,81.97
2024-04-14T09:02:33.090Z,81.61
2024-04-14T09:05:38.603Z,81.67
2024-04-14T09:08:42.989Z,82.08
2024-04-14T09:11:53.576Z,81.21
2024-04-14T09:14:57.864Z,81.41
2024-04-14T09:18:00.179Z,81.49
2024-04-14T09:21:04.695Z,81.57
2024-04-14T09:24:11.812Z,81.56
2024-04-14T09:27:13.790Z,81.34
2024-04-14T09:30:19.501Z,82.06
2024-04-14T09:33:21.433Z,82.05
2024-04-14T09:36:27.474Z,81.48
2024-04-14T09:39:39.512Z,81.78
2024-04-14T09:42:48.936Z,81.76
2024-04-14T09:45:57.009Z,81.63
2024-04-14T09:48:59.303Z,81.46
2024-04-14T09:52:06.242Z,81.60
2024-04-14T09:55:11.296Z,81.67
2024-04-14T09:58:18.254Z,81.81
2024-04-14T10:01:26.825Z,81.69
2024-04-14T10:04:34.812Z,81.79
2024-04-14T10:07:39.945Z,81.53
2024-04-14T10:10:48.769Z,81.74
2024-04-14T10:13:52.312Z,81.88
2024-04-14T10:17:00.951Z,81.76
2024-04-14T10:20:08.664Z,81.52
2024-04-14T10:23:14.812Z,81.71
2024-04-14T10:26:25.232Z,81.78
2024-04-14T10:29:33.513Z,81.73
2024-04-14T10:32:39.982Z,81.65
2024-04-14T10:35:42.282Z,81.49
2024-04-14T10:38:54.703Z,81.74
2024-04-14T10:42:07.692Z,81.88
2024-04-14T10:45:10.464Z,81.60
2024-04-14T10:48:16.493Z,81.96
2024-04-14T10:51:18.812Z,81.83
2024-04-14T10:54:23.796Z,81.38
2024-04-14T10:57:28.790Z,81.82
2024-04-14T11:00:33.842Z,81.98
2024-04-14T11:03:36.648Z,81.50
2024-04-14T11:06:41.281Z,82.07
2024-04-14T11:09:43.302Z,81.83
2024-04-14T11:12:52.484Z,81.93
2024-04-14T11:16:17.932Z,81.83
2024-04-14T11:30:55.931Z,81.66
2024-04-14T11:34:00.572Z,81.78
2024-04-14T11:37:17.385Z,81.95
2024-04-14T11:40:22.980Z,81.76
2024-04-14T11:43:25.001Z,81.81
2024-04-14T11:46:40.536Z,81.80
2024-04-14T11:49:42.410Z,81.87
2024-04-14T11:52:49.889Z,81.61
2024-04-14T11:55:51.632Z,81.80
2024-04-14T11:58:57.121Z,81.79
2024-04-14T12:02:22.570Z,81.52
2024-04-14T12:05:29.878Z,81.76
2024-04-14T12:08:37.010Z,81.73
2024-04-14T12:11:41.580Z,81.78
2024-04-14T12:14:46.792Z,81.81
2024-04-14T12:18:00.941Z,81.45
2024-04-14T12:21:09.231Z,81.92
2024-04-14T12:24:12.102Z,81.88
2024-04-14T12:27:17.470Z,81.92
2024-04-14T12:30:22.970Z,81.96
2024-04-14T12:33:33.816Z,81.86
2024-04-14T12:36:38.271Z,81.67
2024-04-14T12:39:44.055Z,81.86
2024-04-14T12:42:54.014Z,81.76
2024-04-14T12:45:59.651Z,82.01
2024-04-14T12:49:10.712Z,81.85
2024-04-14T12:52:36.365Z,81.70
2024-04-14T12:55:39.470Z,81.62
2024-04-14T12:58:55.845Z,81.66
2024-04-14T13:02:01.146Z,81.78
2024-04-14T13:05:09.419Z,81.75
2024-04-14T13:08:13.112Z,81.80
2024-04-14T13:11:18.096Z,81.84
2024-04-14T13:14:20.473Z,81.77
2024-04-14T13:19:23.146Z,82.00
2024-04-14T13:22:24.847Z,81.96
2024-04-14T13:25:29.153Z,81.74
2024-04-14T13:28:33.938Z,81.82
2024-04-14T13:31:38.189Z,81.84
2024-04-14T13:34:45.370Z,81.95
2024-04-14T13:37:47.083Z,81.63
2024-04-14T13:40:51.397Z,81.76
2024-04-14T13:43:57.548Z,81.85
2024-04-14T13:47:02.021Z,81.88
2024-04-14T13:50:06.784Z,81.89
2024-04-14T13:53:11.085Z,81.64
2024-04-14T13:56:12.812Z,81.90
2024-04-14T13:59:17.177Z,81.60
2024-04-14T14:02:19.095Z,81.88
2024-04-14T14:05:27.409Z,81.75
2024-04-14T14:08:29.060Z,82.05
2024-04-14T14:11:33.686Z,82.34
2024-04-14T14:14:38.160Z,81.75
2024-04-14T14:17:39.980Z,81.98
2024-04-14T14:20:47.101Z,82.15
2024-04-14T14:23:51.540Z,81.61
2024-04-14T14:26:53.277Z,82.05
2024-04-14T14:29:57.623Z,82.04
2024-04-14T14:33:22.066Z,82.12
2024-04-14T14:36:30.982Z,82.12
2024-04-14T14:39:35.298Z,82.19
2024-04-14T14:42:39.613Z,81.88
2024-04-14T14:45:44.236Z,81.75
2024-04-14T14:48:46.167Z,81.83
2024-04-14T14:51:53.179Z,81.76
2024-04-14T14:54:54.924Z,81.98
2024-04-14T14:57:59.364Z,81.99
2024-04-14T15:01:01.657Z,81.94
2024-04-14T15:04:06.161Z,81.71
2024-04-14T15:07:13.329Z,81.95
2024-04-14T15:10:15.761Z,81.86
2024-04-14T15:13:20.191Z,81.60
2024-04-14T15:16:22.041Z,82.13
2024-04-14T15:19:26.330Z,81.51
2024-04-14T15:22:30.838Z,81.47
2024-04-14T15:25:35.155Z,81.77
2024-04-14T15:28:37.079Z,81.51
2024-04-14T15:31:41.543Z,81.66
2024-04-14T15:34:43.274Z,81.66
2024-04-14T15:37:50.617Z,81.39
2024-04-14T15:40:53.267Z,81.34
2024-04-14T15:44:04.077Z,81.03
2024-04-14T15:47:09.415Z,80.95
2024-04-14T15:50:14.231Z,81.22
2024-04-14T15:53:18.492Z,81.20
2024-04-14T15:56:22.861Z,81.60
2024-04-14T15:59:27.301Z,81.82
2024-04-14T16:02:31.660Z,82.08
2024-04-14T16:05:33.393Z,81.96
2024-04-14T16:08:40.252Z,82.12
2024-04-14T16:11:42.146Z,82.05
2024-04-14T16:14:50.292Z,82.05
2024-04-14T16:17:52.071Z,82.06
2024-04-14T16:20:58.066Z,81.44
2024-04-14T16:24:04.781Z,81.12
2024-04-14T16:27:09.544Z,81.48
2024-04-14T16:30:11.395Z,81.44
2024-04-14T16:33:15.789Z,81.34
2024-04-14T16:36:17.516Z,81.70
2024-04-14T16:39:24.405Z,81.49
2024-04-14T16:42:26.178Z,81.69
2024-04-14T16:45:30.822Z,81.56
2024-04-14T16:48:32.992Z,81.59
2024-04-14T16:51:37.522Z,81.74
2024-04-14T16:54:44.449Z,81.71
2024-04-14T16:57:46.262Z,81.63
2024-04-14T17:00:50.681Z,81.12
2024-04-14T17:03:52.422Z,81.02
2024-04-14T17:07:08.372Z,80.98
2024-04-14T17:10:20.461Z,80.16
2024-04-14T17:13:24.902Z,80.13
2024-04-14T17:16:32.179Z,79.84
2024-04-14T17:19:36.752Z,79.41
2024-04-14T17:22:43.763Z,79.09
2024-04-14T17:25:48.847Z,78.77
2024-04-14T17:28:53.123Z,78.71
2024-04-14T17:31:57.886Z,79.59
2024-04-14T17:35:15.853Z,79.67
2024-04-14T17:38:20.221Z,79.46
2024-04-14T17:41:28.366Z,79.62
2024-04-14T17:44:32.256Z,80.31
2024-04-14T17:47:37.452Z,80.26
2024-04-14T17:50:42.380Z,79.02
2024-04-14T17:53:44.414Z,78.90
2024-04-14T17:56:52.420Z,78.47
2024-04-14T17:59:54.148Z,78.42
2024-04-14T18:02:59.777Z,80.58
2024-04-14T18:06:05.721Z,81.18
2024-04-14T18:09:13.644Z,81.09
2024-04-14T18:12:22.710Z,80.76
2024-04-14T18:15:34.714Z,80.93
2024-04-14T18:18:39.927Z,80.83
2024-04-14T18:21:47.796Z,81.17
2024-04-14T18:24:53.974Z,80.75
2024-04-14T18:28:06.544Z,80.81
2024-04-14T18:31:09.005Z,80.84
2024-04-14T18:34:24.746Z,80.87
2024-04-14T18:37:36.636Z,80.93
2024-04-14T18:40:50.412Z,80.86
2024-04-14T18:43:56.280Z,80.67
2024-04-14T18:47:00.927Z,80.89
2024-04-14T18:50:03.026Z,80.81
2024-04-14T18:53:07.358Z,79.82
2024-04-14T18:56:12.324Z,79.67
2024-04-14T18:59:23.034Z,80.07
2024-04-14T19:02:24.808Z,80.73
2024-04-14T19:05:29.446Z,80.18
2024-04-14T19:08:31.992Z,79.57
2024-04-14T19:11:36.825Z,79.46
2024-04-14T19:14:41.197Z,79.66
2024-04-14T19:17:45.589Z,79.49
2024-04-14T19:20:48.489Z,79.73
2024-04-14T19:23:57.694Z,79.53
2024-04-14T19:27:01.599Z,79.42
2024-04-14T19:30:09.818Z,79.65
2024-04-14T19:33:11.546Z,79.82
2024-04-14T19:36:16.560Z,79.63
2024-04-14T19:39:18.317Z,79.61
2024-04-14T19:42:23.678Z,79.11
2024-04-14T19:45:34.194Z,79.80
2024-04-14T19:48:38.989Z,79.43
2024-04-14T19:51:42.171Z,79.18
2024-04-14T19:54:48.639Z,79.08
2024-04-14T19:57:52.117Z,79.36
2024-04-14T20:01:00.543Z,79.14
2024-04-14T20:04:02.428Z,79.06
2024-04-14T20:07:07.146Z,78.72
2024-04-14T20:10:10.280Z,79.06
2024-04-14T20:13:19.111Z,79.17
2024-04-14T20:16:24.118Z,79.33
2024-04-14T20:19:29.017Z,79.14
2024-04-14T20:22:31.215Z,79.28
2024-04-14T20:25:37.243Z,79.54
2024-04-14T20:28:41.603Z,79.42
2024-04-14T20:31:49.020Z,78.96
2024-04-14T20:34:50.865Z,78.96
2024-04-14T20:37:55.527Z,78.83
2024-04-14T20:40:58.994Z,78.83
2024-04-14T20:44:03.317Z,78.87
2024-04-14T20:47:07.848Z,78.70
2024-04-14T20:50:12.146Z,78.56
2024-04-14T20:53:13.876Z,78.61
2024-04-14T20:56:18.262Z,78.98
2024-04-14T20:59:20.551Z,78.58
2024-04-14T21:02:27.661Z,78.90
2024-04-14T21:05:32.202Z,78.74
2024-04-14T21:08:34.201Z,78.77
2024-04-14T21:11:40.262Z,78.38
2024-04-14T21:14:41.996Z,78.38
2024-04-14T21:17:49.059Z,78.58
2024-04-14T21:20:57.021Z,78.11
2024-04-14T21:24:01.465Z,78.36
2024-04-14T21:27:03.291Z,78.40
2024-04-14T21:30:08.554Z,78.86
2024-04-14T21:33:12.916Z,78.61
2024-04-14T21:36:17.462Z,78.63
2024-04-14T21:39:19.226Z,78.63
2024-04-14T21:42:23.548Z,78.75
2024-04-14T21:45:28.023Z,78.76
2024-04-14T21:48:32.523Z,79.00
2024-04-14T21:51:37.744Z,79.08
2024-04-14T21:54:39.501Z,78.95
2024-04-14T21:57:43.879Z,78.80
2024-04-14T22:00:45.644Z,79.07
2024-04-14T22:04:01.329Z,78.97
2024-04-14T22:07:11.232Z,79.07
2024-04-14T22:10:15.803Z,78.95
2024-04-14T22:13:22.181Z,78.99
2024-04-14T22:16:26.686Z,78.51
2024-04-14T22:19:33.777Z,78.48
2024-04-14T22:22:36.222Z,79.51
2024-04-14T22:25:40.875Z,77.59
2024-04-14T22:28:42.558Z,78.25
2024-04-14T22:31:46.851Z,78.34
2024-04-14T22:34:51.190Z,78.25
2024-04-14T22:37:55.684Z,77.91
2024-04-14T22:41:00.036Z,78.19
2024-04-14T22:44:04.566Z,78.37
2024-04-14T22:47:06.540Z,78.32
2024-04-14T22:50:13.554Z,78.52
2024-04-14T22:53:15.299Z,78.37
2024-04-14T22:56:20.205Z,78.61
2024-04-14T22:59:21.990Z,78.22
2024-04-14T23:02:26.666Z,78.27
2024-04-14T23:05:33.592Z,77.99
2024-04-14T23:08:35.241Z,77.89
2024-04-14T23:11:39.569Z,78.35
2024-04-14T23:14:44.196Z,78.80
2024-04-14T23:17:51.953Z,78.56
2024-04-14T23:20:56.274Z,78.95
2024-04-14T23:24:00.575Z,78.86
2024-04-14T23:27:02.432Z,77.99
2024-04-14T23:30:07.661Z,79.14
2024-04-14T23:33:09.556Z,78.54
2024-04-14T23:36:17.294Z,78.58
2024-04-14T23:39:18.991Z,78.04
2024-04-14T23:42:24.181Z,78.59
2024-04-14T23:45:25.983Z,78.39
2024-04-14T23:48:30.583Z,78.71
2024-04-14T23:51:35.098Z,78.75
2024-04-14T23:54:39.597Z,78.33
2024-04-14T23:57:42.447Z,79.50
